"WATCHING THE WEATHER TO PROTECT LIFE AND PROPERTY"


AKTUALMENTE NO TIN NINGUN VIGILANSIA ÒF ATVERTENSIA


Satelit (InfraRojo)


TNCA 240200Z 09015KT 9999 FEW019 27/22 Q1013 NOSIG
TNCB 240155Z AUTO 08009KT 9999 FEW016/// 26/23 Q1013
TNCC 240200Z 10011KT 9999 FEW018 27/23 Q1013 NOSIG
TNCM 240200Z 06007KT 9999 FEW020 25/21 Q1018